KSDY/SDY METAR and TAF weather

Enter ICAO airport designator
Station Type Date Time Source
KSDY METAR 2018/12/15 19:56 UTC NOAA

KSDY 151956Z AUTO 28015G22KT 10SM CLR 09/M02 A2977 RMK AO2 PK WND 28026/1928 SLP100 T00941017


Station Type Date Time Source
KSDY Decoded METAR 2018/12/15 19:56 UTC NOAA

Sidney-Richland, MT, United States (KSDY) 47-42N 104-12W
Dec 15, 2018 - 02:56 PM EST / 2018.12.15 1956 UTC
Wind: from the W (280 degrees) at 17 MPH (15 KT) gusting to 25 MPH (22 KT):0
Visibility: 10 mile(s):0
Sky conditions: clear
Temperature: 48.9 F (9.4 C)
Dew Point: 28.9 F (-1.7 C)
Relative Humidity: 45%
Pressure (altimeter): 29.77 in. Hg (1008 hPa)
ob: KSDY 151956Z AUTO 28015G22KT 10SM CLR 09/M02 A2977 RMK AO2 PK WND 28026/1928 SLP100 T00941017
cycle: 20

Station Type Date Time Source
KSDY TAF 2018/12/15 18:34 UTC NOAA

TAF KSDY 151732Z 1518/1618 25015G24KT P6SM FEW100
FM160000 27012KT P6SM SKC WS020/29040KT
FM160300 VRB06KT P6SM SKC


Example: see airport list